createdAt,value
2023-05-03T00:01:44.341Z,3.87
2023-05-03T00:04:13.723Z,4.30
2023-05-03T00:06:41.746Z,4.37
2023-05-03T00:09:10.653Z,4.03
2023-05-03T00:11:39.940Z,3.87
2023-05-03T00:14:08.512Z,3.77
2023-05-03T00:16:37.535Z,4.33
2023-05-03T00:19:05.642Z,4.10
2023-05-03T00:21:33.377Z,4.30
2023-05-03T00:24:01.492Z,4.63
2023-05-03T00:26:29.289Z,5.00
2023-05-03T00:28:58.492Z,4.30
2023-05-03T00:31:26.376Z,4.43
2023-05-03T00:33:54.607Z,4.77
2023-05-03T00:36:22.496Z,4.73
2023-05-03T00:38:50.941Z,4.73
2023-05-03T00:41:19.351Z,4.97
2023-05-03T00:43:47.536Z,4.43
2023-05-03T00:46:17.797Z,4.30
2023-05-03T00:48:46.081Z,4.80
2023-05-03T00:51:14.544Z,4.77
2023-05-03T00:53:42.430Z,4.20
2023-05-03T00:56:11.279Z,4.77
2023-05-03T00:58:40.600Z,4.40
2023-05-03T01:01:09.349Z,4.30
2023-05-03T01:03:41.792Z,4.47
2023-05-03T01:06:16.994Z,4.67
2023-05-03T01:08:50.289Z,4.70
2023-05-03T01:11:23.540Z,4.60
2023-05-03T01:13:56.233Z,4.87
2023-05-03T01:16:30.468Z,4.53
2023-05-03T01:19:02.777Z,4.90
2023-05-03T01:21:33.889Z,4.40
2023-05-03T01:24:06.231Z,4.33
2023-05-03T01:26:36.163Z,4.40
2023-05-03T01:29:03.999Z,4.23
2023-05-03T01:31:36.963Z,4.43
2023-05-03T01:34:22.074Z,4.23
2023-05-03T01:36:50.877Z,4.63
2023-05-03T01:39:21.818Z,4.63
2023-05-03T01:41:52.371Z,4.27
2023-05-03T01:44:21.090Z,4.23
2023-05-03T01:46:49.670Z,4.07
2023-05-03T01:49:17.754Z,4.70
2023-05-03T01:51:45.515Z,4.63
2023-05-03T01:54:13.697Z,4.43
2023-05-03T01:56:41.846Z,5.10
2023-05-03T01:59:11.065Z,4.93
2023-05-03T02:01:39.007Z,4.73
2023-05-03T02:04:08.703Z,5.40
2023-05-03T02:06:37.268Z,4.80
2023-05-03T02:09:05.123Z,4.97
2023-05-03T02:11:32.984Z,5.20
2023-05-03T02:14:01.485Z,4.83
2023-05-03T02:16:31.032Z,5.00
2023-05-03T02:18:59.505Z,5.77
2023-05-03T02:21:27.827Z,5.30
2023-05-03T02:23:56.183Z,5.63
2023-05-03T02:26:23.858Z,5.67
2023-05-03T02:28:51.685Z,5.43
2023-05-03T02:31:19.642Z,5.77
2023-05-03T02:33:49.351Z,5.60
2023-05-03T02:36:17.943Z,5.97
2023-05-03T02:38:46.642Z,5.37
2023-05-03T02:41:14.427Z,6.00
2023-05-03T02:43:42.198Z,5.70
2023-05-03T02:46:09.936Z,5.90
2023-05-03T02:48:38.056Z,6.00
2023-05-03T02:51:08.056Z,6.50
2023-05-03T02:53:35.892Z,6.17
2023-05-03T02:56:05.814Z,6.50
2023-05-03T02:58:34.434Z,5.90
2023-05-03T03:01:04.068Z,5.83
2023-05-03T03:03:32.376Z,5.70
2023-05-03T03:06:00.941Z,5.97
2023-05-03T03:08:30.717Z,5.93
2023-05-03T03:11:02.367Z,6.83
2023-05-03T03:13:30.194Z,5.77
2023-05-03T03:15:59.876Z,5.60
2023-05-03T03:18:27.812Z,5.43
2023-05-03T03:20:55.691Z,5.60
2023-05-03T03:23:23.658Z,5.70
2023-05-03T03:25:53.275Z,5.97
2023-05-03T03:28:22.057Z,5.53
2023-05-03T03:30:50.225Z,6.20
2023-05-03T03:33:26.589Z,5.80
2023-05-03T03:35:59.657Z,6.07
2023-05-03T03:38:31.913Z,6.13
2023-05-03T03:41:06.279Z,6.43
2023-05-03T03:43:34.727Z,5.90
2023-05-03T03:46:05.698Z,6.33
2023-05-03T03:48:34.482Z,6.07
2023-05-03T03:51:02.572Z,6.10
2023-05-03T03:53:37.263Z,6.23
2023-05-03T03:56:08.552Z,6.40
2023-05-03T03:58:36.927Z,5.70
2023-05-03T04:01:07.501Z,5.33
2023-05-03T04:03:35.544Z,5.77
2023-05-03T04:06:04.275Z,5.53
2023-05-03T04:08:32.619Z,5.43
2023-05-03T04:11:00.323Z,5.15
2023-05-03T04:13:29.495Z,5.55
2023-05-03T04:15:58.011Z,5.10
2023-05-03T04:18:27.485Z,5.53
2023-05-03T04:20:57.805Z,5.53
2023-05-03T04:23:26.712Z,5.22
2023-05-03T04:25:57.123Z,7.23
2023-05-03T04:28:29.676Z,6.07
2023-05-03T04:30:59.051Z,5.90
2023-05-03T04:33:30.037Z,5.80
2023-05-03T04:36:02.182Z,6.13
2023-05-03T04:38:30.206Z,5.45
2023-05-03T04:41:00.618Z,5.80
2023-05-03T04:43:33.000Z,5.70
2023-05-03T04:46:00.781Z,5.80
2023-05-03T04:48:28.642Z,5.15
2023-05-03T04:50:56.424Z,5.15
2023-05-03T04:53:25.128Z,6.40
2023-05-03T04:56:04.364Z,5.05
2023-05-03T04:58:36.942Z,5.15
2023-05-03T05:01:06.384Z,5.07
2023-05-03T05:03:34.243Z,4.57
2023-05-03T05:06:09.756Z,6.45
2023-05-03T05:08:38.359Z,6.10
2023-05-03T05:11:08.664Z,5.60
2023-05-03T05:13:37.895Z,5.05
2023-05-03T05:16:06.295Z,5.00
2023-05-03T05:18:35.506Z,4.30
2023-05-03T05:21:05.942Z,4.47
2023-05-03T05:23:36.148Z,4.03
2023-05-03T05:26:04.898Z,3.40
2023-05-03T05:28:33.809Z,3.28
2023-05-03T05:31:04.200Z,3.50
2023-05-03T05:33:32.988Z,3.47
2023-05-03T05:36:01.625Z,3.42
2023-05-03T05:38:29.593Z,3.10
2023-05-03T05:41:00.135Z,3.35
2023-05-03T05:43:27.895Z,3.40
2023-05-03T05:45:56.550Z,3.25
2023-05-03T05:48:26.181Z,3.30
2023-05-03T05:50:53.892Z,2.60
2023-05-03T05:53:22.339Z,2.38
2023-05-03T05:55:56.621Z,2.80
2023-05-03T05:58:26.415Z,2.50
2023-05-03T06:00:59.251Z,2.47
2023-05-03T06:03:30.204Z,2.70
2023-05-03T06:05:58.100Z,2.30
2023-05-03T06:08:26.619Z,2.33
2023-05-03T06:10:54.897Z,2.17
2023-05-03T06:13:24.787Z,1.77
2023-05-03T06:15:53.750Z,1.85
2023-05-03T06:18:21.525Z,1.70
2023-05-03T06:20:53.837Z,2.08
2023-05-03T06:23:22.289Z,1.90
2023-05-03T06:25:51.354Z,1.70
2023-05-03T06:28:19.141Z,1.73
2023-05-03T06:30:50.110Z,1.60
2023-05-03T06:33:18.154Z,1.83
2023-05-03T06:35:49.143Z,1.50
2023-05-03T06:38:20.307Z,1.50
2023-05-03T06:40:48.105Z,1.52
2023-05-03T06:43:16.506Z,1.50
2023-05-03T06:45:52.525Z,1.33
2023-05-03T06:48:21.735Z,1.33
2023-05-03T06:50:50.263Z,1.42
2023-05-03T06:53:18.016Z,1.10
2023-05-03T06:55:47.303Z,1.20
2023-05-03T06:58:16.978Z,1.15
2023-05-03T07:00:44.680Z,1.30
2023-05-03T07:03:12.610Z,1.35
2023-05-03T07:05:40.393Z,1.20
2023-05-03T07:08:08.115Z,1.38
2023-05-03T07:10:36.528Z,1.83
2023-05-03T07:13:05.580Z,1.30
2023-05-03T07:15:33.293Z,1.20
2023-05-03T07:18:01.469Z,1.20
2023-05-03T07:20:29.546Z,1.23
2023-05-03T07:22:57.786Z,1.38
2023-05-03T07:25:25.589Z,1.40
2023-05-03T07:27:53.452Z,1.48
2023-05-03T07:30:23.133Z,1.50
2023-05-03T07:32:51.817Z,1.60
2023-05-03T07:35:19.770Z,1.40
2023-05-03T07:37:48.224Z,1.40
2023-05-03T07:40:16.219Z,1.50
2023-05-03T07:42:43.858Z,1.30
2023-05-03T07:45:11.947Z,1.48
2023-05-03T07:47:41.048Z,1.30
2023-05-03T07:50:09.466Z,1.65
2023-05-03T07:52:38.083Z,1.30
2023-05-03T07:55:06.882Z,1.35
2023-05-03T07:57:34.624Z,1.42
2023-05-03T08:00:02.567Z,1.38
2023-05-03T08:02:42.596Z,1.40
2023-05-03T08:05:14.545Z,1.55
2023-05-03T08:07:44.343Z,1.35
2023-05-03T08:10:12.846Z,1.42
2023-05-03T08:12:40.632Z,1.45
2023-05-03T08:15:10.005Z,1.50
2023-05-03T08:17:43.472Z,1.30
2023-05-03T08:20:12.319Z,1.42
2023-05-03T08:22:41.223Z,1.60
2023-05-03T08:25:10.403Z,1.50
2023-05-03T08:27:39.704Z,1.73
2023-05-03T08:30:09.748Z,1.50
2023-05-03T08:32:38.039Z,1.33
2023-05-03T08:35:08.313Z,1.90
2023-05-03T08:37:40.496Z,1.40
2023-05-03T08:40:10.180Z,1.38
2023-05-03T08:42:41.141Z,1.73
2023-05-03T08:45:11.250Z,1.60
2023-05-03T08:47:40.683Z,1.58
2023-05-03T08:50:12.038Z,1.40
2023-05-03T08:52:40.866Z,1.50
2023-05-03T08:55:09.194Z,1.40
2023-05-03T08:57:37.595Z,1.40
2023-05-03T09:00:10.644Z,1.50
2023-05-03T09:02:39.828Z,1.65
2023-05-03T09:05:34.022Z,1.60
2023-05-03T09:08:02.370Z,1.60
2023-05-03T09:10:30.245Z,1.73
2023-05-03T09:13:01.600Z,1.70
2023-05-03T09:15:30.455Z,1.70
2023-05-03T09:18:12.315Z,1.80
2023-05-03T09:20:42.475Z,1.60
2023-05-03T09:23:11.349Z,1.80
2023-05-03T09:25:46.893Z,1.70
2023-05-03T09:28:15.501Z,1.52
2023-05-03T09:30:43.475Z,1.50
2023-05-03T09:33:11.950Z,1.70
2023-05-03T09:35:56.767Z,1.80
2023-05-03T09:38:28.125Z,1.63
2023-05-03T09:40:56.003Z,2.13
2023-05-03T09:43:23.819Z,1.70
2023-05-03T09:45:51.755Z,1.63
2023-05-03T09:48:23.531Z,1.63
2023-05-03T09:50:52.890Z,1.52
2023-05-03T09:53:21.123Z,1.75
2023-05-03T09:55:50.688Z,1.70
2023-05-03T09:58:20.614Z,1.60
2023-05-03T10:00:52.423Z,2.15
2023-05-03T10:03:25.524Z,1.77
2023-05-03T10:05:55.798Z,1.60
2023-05-03T10:08:27.660Z,1.60
2023-05-03T10:10:55.934Z,1.70
2023-05-03T10:13:23.943Z,1.58
2023-05-03T10:15:54.706Z,2.08
2023-05-03T10:18:24.931Z,2.88
2023-05-03T10:20:59.351Z,1.90
2023-05-03T10:23:28.150Z,1.80
2023-05-03T10:26:14.940Z,1.80
2023-05-03T10:28:43.910Z,1.90
2023-05-03T10:31:46.742Z,1.98
2023-05-03T10:34:21.783Z,1.80
2023-05-03T10:36:53.243Z,1.83
2023-05-03T10:39:21.564Z,1.80
2023-05-03T10:42:01.270Z,1.60
2023-05-03T10:44:29.963Z,1.90
2023-05-03T10:46:58.679Z,1.63
2023-05-03T10:49:27.215Z,1.70
2023-05-03T10:51:57.703Z,1.65
2023-05-03T10:54:26.499Z,1.60
2023-05-03T10:56:57.725Z,1.80
2023-05-03T10:59:25.864Z,1.92
2023-05-03T11:01:54.095Z,2.38
2023-05-03T11:04:31.922Z,1.60
2023-05-03T11:07:01.324Z,2.00
2023-05-03T11:09:33.825Z,1.83
2023-05-03T11:12:05.468Z,2.20
2023-05-03T11:14:33.220Z,1.77
2023-05-03T11:17:01.462Z,2.20
2023-05-03T11:19:29.857Z,1.88
2023-05-03T11:21:58.468Z,2.08
2023-05-03T11:24:28.584Z,2.00
2023-05-03T11:26:57.162Z,1.80
2023-05-03T11:29:26.508Z,2.08
2023-05-03T11:31:54.860Z,2.00
2023-05-03T11:34:23.004Z,1.90
2023-05-03T11:36:51.094Z,1.90
2023-05-03T11:39:20.975Z,2.00
2023-05-03T11:42:04.241Z,1.92
2023-05-03T11:44:32.122Z,1.92
2023-05-03T11:47:00.937Z,1.73
2023-05-03T11:49:28.956Z,2.10
2023-05-03T11:51:57.095Z,2.20
2023-05-03T11:54:27.619Z,2.08
2023-05-03T11:56:59.989Z,2.20
2023-05-03T11:59:40.748Z,2.13
2023-05-03T12:02:10.484Z,2.13
2023-05-03T12:04:41.365Z,2.55
2023-05-03T12:07:10.929Z,1.90
2023-05-03T12:09:40.168Z,1.88
2023-05-03T12:12:11.056Z,1.95
2023-05-03T12:15:03.097Z,2.28
2023-05-03T12:17:37.342Z,1.98
2023-05-03T12:22:51.222Z,2.10
2023-05-03T12:25:20.825Z,2.30
2023-05-03T12:28:01.941Z,2.45
2023-05-03T12:30:40.667Z,2.08
2023-05-03T12:33:10.183Z,2.80
2023-05-03T12:35:40.850Z,2.20
2023-05-03T12:38:10.398Z,2.50
2023-05-03T12:40:39.122Z,2.55
2023-05-03T12:43:07.576Z,2.45
2023-05-03T12:45:38.471Z,2.60
2023-05-03T12:48:10.033Z,2.20
2023-05-03T12:50:39.315Z,2.70
2023-05-03T12:53:09.982Z,2.47
2023-05-03T12:55:43.456Z,2.63
2023-05-03T12:58:43.253Z,2.55
2023-05-03T13:03:34.214Z,2.35
2023-05-03T13:06:12.635Z,2.50
2023-05-03T13:08:49.465Z,2.47
2023-05-03T13:11:20.252Z,2.63
2023-05-03T13:13:48.867Z,2.88
2023-05-03T13:16:16.802Z,2.33
2023-05-03T13:18:46.091Z,2.90
2023-05-03T13:21:13.974Z,2.80
2023-05-03T13:23:41.835Z,3.00
2023-05-03T13:26:09.596Z,2.90
2023-05-03T13:28:37.616Z,2.50
2023-05-03T13:31:05.626Z,2.30
2023-05-03T13:33:37.874Z,3.30
2023-05-03T13:36:08.443Z,2.40
2023-05-03T13:38:36.656Z,2.63
2023-05-03T13:41:07.778Z,2.50
2023-05-03T13:43:35.947Z,2.50
2023-05-03T13:46:03.739Z,3.10
2023-05-03T13:48:32.580Z,2.63
2023-05-03T13:51:00.680Z,2.38
2023-05-03T13:53:29.891Z,3.00
2023-05-03T13:55:57.996Z,2.33
2023-05-03T13:58:25.653Z,2.60
2023-05-03T14:00:53.905Z,3.03
2023-05-03T14:03:21.793Z,2.80
2023-05-03T14:05:49.811Z,2.95
2023-05-03T14:08:17.905Z,2.33
2023-05-03T14:10:47.063Z,3.10
2023-05-03T14:13:15.290Z,3.53
2023-05-03T14:15:45.143Z,3.22
2023-05-03T14:18:13.662Z,3.03
2023-05-03T14:20:42.241Z,3.13
2023-05-03T14:23:10.262Z,3.28
2023-05-03T14:25:39.017Z,3.08
2023-05-03T14:28:08.105Z,3.50
2023-05-03T14:30:36.668Z,3.08
2023-05-03T14:33:04.620Z,3.05
2023-05-03T14:35:32.427Z,3.05
2023-05-03T14:38:00.434Z,3.20
2023-05-03T14:40:28.328Z,3.10
2023-05-03T14:42:56.111Z,3.33
2023-05-03T14:45:25.248Z,3.38
2023-05-03T14:47:53.018Z,3.55
2023-05-03T14:50:21.071Z,4.38
2023-05-03T14:52:48.964Z,3.55
2023-05-03T14:55:17.412Z,3.40
2023-05-03T14:57:45.222Z,3.13
2023-05-03T15:00:15.185Z,3.38
2023-05-03T15:02:44.512Z,3.35
2023-05-03T15:05:13.102Z,3.30
2023-05-03T15:07:41.060Z,3.35
2023-05-03T15:10:10.050Z,3.03
2023-05-03T15:12:39.800Z,3.35
2023-05-03T15:15:09.561Z,3.30
2023-05-03T15:17:37.947Z,3.50
2023-05-03T15:20:10.182Z,3.60
2023-05-03T15:22:38.077Z,3.47
2023-05-03T15:25:07.141Z,3.20
2023-05-03T15:27:34.998Z,3.35
2023-05-03T15:30:04.072Z,3.45
2023-05-03T15:32:32.354Z,3.55
2023-05-03T15:35:00.722Z,3.30
2023-05-03T15:37:36.053Z,3.30
2023-05-03T15:40:05.594Z,3.33
2023-05-03T15:42:34.034Z,3.10
2023-05-03T15:45:02.337Z,3.25
2023-05-03T15:47:30.096Z,3.20
2023-05-03T15:49:58.597Z,3.08
2023-05-03T15:52:26.595Z,2.92
2023-05-03T15:54:56.216Z,2.97
2023-05-03T15:57:24.555Z,3.10
2023-05-03T15:59:53.080Z,3.00
2023-05-03T16:02:21.391Z,2.85
2023-05-03T16:04:50.766Z,2.55
2023-05-03T16:07:18.893Z,2.80
2023-05-03T16:09:48.295Z,3.30
2023-05-03T16:12:17.526Z,2.90
2023-05-03T16:14:46.569Z,3.00
2023-05-03T16:17:14.998Z,3.45
2023-05-03T16:19:44.544Z,3.00
2023-05-03T16:22:12.355Z,2.95
2023-05-03T16:24:40.713Z,3.22
2023-05-03T16:27:08.583Z,2.97
2023-05-03T16:29:38.800Z,3.17
2023-05-03T16:32:09.613Z,3.20
2023-05-03T16:34:37.898Z,3.25
2023-05-03T16:37:06.150Z,2.95
2023-05-03T16:39:33.930Z,3.22
2023-05-03T16:42:02.663Z,3.10
2023-05-03T16:44:30.369Z,3.15
2023-05-03T16:46:59.486Z,2.90
2023-05-03T16:49:27.265Z,3.03
2023-05-03T16:51:56.309Z,2.88
2023-05-03T16:54:24.253Z,3.17
2023-05-03T16:56:52.565Z,3.45
2023-05-03T16:59:20.457Z,2.95
2023-05-03T17:01:48.240Z,3.22
2023-05-03T17:04:17.895Z,2.85
2023-05-03T17:06:45.940Z,3.00
2023-05-03T17:09:14.017Z,3.40
2023-05-03T17:11:41.875Z,3.17
2023-05-03T17:14:09.753Z,2.70
2023-05-03T17:16:40.458Z,3.17
2023-05-03T17:19:09.329Z,2.97
2023-05-03T17:21:38.571Z,2.80
2023-05-03T17:24:07.546Z,3.25
2023-05-03T17:26:35.558Z,2.92
2023-05-03T17:29:03.492Z,2.90
2023-05-03T17:31:32.149Z,2.60
2023-05-03T17:34:00.131Z,2.70
2023-05-03T17:36:29.253Z,3.15
2023-05-03T17:38:58.748Z,3.10
2023-05-03T17:41:26.408Z,2.85
2023-05-03T17:43:55.282Z,2.95
2023-05-03T17:46:24.911Z,2.67
2023-05-03T17:48:53.479Z,2.70
2023-05-03T17:51:21.793Z,2.70
2023-05-03T17:53:50.229Z,3.03
2023-05-03T17:56:19.894Z,2.50
2023-05-03T17:58:48.526Z,2.80
2023-05-03T18:01:17.110Z,2.85
2023-05-03T18:03:45.520Z,2.83
2023-05-03T18:06:14.196Z,3.25
2023-05-03T18:08:42.345Z,3.47
2023-05-03T18:11:10.288Z,2.80
2023-05-03T18:13:41.187Z,2.50
2023-05-03T18:16:09.783Z,2.88
2023-05-03T18:18:38.034Z,2.65
2023-05-03T18:21:06.216Z,2.60
2023-05-03T18:23:35.117Z,2.97
2023-05-03T18:26:03.691Z,2.97
2023-05-03T18:28:31.730Z,3.28
2023-05-03T18:31:00.856Z,2.90
2023-05-03T18:33:29.082Z,2.72
2023-05-03T18:35:56.985Z,3.00
2023-05-03T18:38:24.865Z,2.97
2023-05-03T18:40:54.129Z,2.92
2023-05-03T18:43:22.177Z,2.53
2023-05-03T18:45:50.017Z,2.60
2023-05-03T18:48:19.245Z,3.33
2023-05-03T18:50:47.041Z,3.63
2023-05-03T18:53:15.000Z,3.13
2023-05-03T18:55:43.122Z,2.70
2023-05-03T18:58:10.810Z,2.83
2023-05-03T19:00:38.621Z,3.17
2023-05-03T19:03:07.170Z,3.25
2023-05-03T19:05:36.311Z,2.90
2023-05-03T19:08:04.574Z,2.67
2023-05-03T19:10:32.808Z,2.80
2023-05-03T19:13:01.294Z,2.53
2023-05-03T19:15:29.529Z,2.90
2023-05-03T19:17:57.232Z,3.15
2023-05-03T19:20:24.986Z,2.97
2023-05-03T19:22:54.488Z,3.25
2023-05-03T19:25:22.846Z,3.30
2023-05-03T19:27:50.755Z,3.40
2023-05-03T19:30:19.294Z,3.35
2023-05-03T19:32:47.530Z,7.18
2023-05-03T19:35:15.376Z,3.42
2023-05-03T19:37:44.603Z,3.53
2023-05-03T19:40:14.872Z,3.60
2023-05-03T19:42:42.703Z,3.55
2023-05-03T19:45:11.074Z,3.20
2023-05-03T19:47:38.910Z,3.30
2023-05-03T19:50:08.372Z,3.47
2023-05-03T19:52:36.058Z,3.03
2023-05-03T19:55:07.106Z,3.72
2023-05-03T19:57:37.168Z,3.70
2023-05-03T20:00:07.109Z,3.80
2023-05-03T20:02:36.686Z,3.63
2023-05-03T20:05:06.954Z,4.10
2023-05-03T20:07:36.211Z,4.13
2023-05-03T20:10:05.419Z,4.47
2023-05-03T20:12:33.925Z,3.78
2023-05-03T20:15:03.376Z,3.83
2023-05-03T20:17:31.368Z,3.88
2023-05-03T20:20:06.583Z,4.22
2023-05-03T20:22:34.369Z,3.40
2023-05-03T20:25:02.623Z,3.60
2023-05-03T20:27:30.301Z,3.30
2023-05-03T20:29:58.389Z,3.80
2023-05-03T20:32:27.542Z,3.38
2023-05-03T20:34:55.299Z,3.75
2023-05-03T20:37:23.531Z,4.05
2023-05-03T20:39:51.192Z,3.92
2023-05-03T20:42:18.945Z,4.38
2023-05-03T20:44:46.973Z,3.50
2023-05-03T20:47:15.012Z,4.00
2023-05-03T20:49:44.349Z,3.80
2023-05-03T20:52:12.368Z,3.95
2023-05-03T20:54:43.771Z,3.70
2023-05-03T20:57:13.486Z,3.80
2023-05-03T20:59:41.378Z,3.95
2023-05-03T21:02:09.137Z,3.97
2023-05-03T21:04:37.748Z,4.03
2023-05-03T21:07:06.873Z,4.32
2023-05-03T21:09:35.162Z,4.22
2023-05-03T21:12:03.480Z,5.35
2023-05-03T21:14:31.212Z,4.25
2023-05-03T21:16:59.050Z,4.15
2023-05-03T21:19:27.219Z,4.65
2023-05-03T21:21:54.916Z,4.40
2023-05-03T21:24:25.617Z,4.30
2023-05-03T21:26:53.475Z,3.65
2023-05-03T21:29:21.180Z,3.90
2023-05-03T21:31:49.115Z,3.25
2023-05-03T21:34:16.907Z,3.22
2023-05-03T21:36:44.981Z,4.10
2023-05-03T21:39:13.283Z,3.50
2023-05-03T21:41:43.469Z,3.72
2023-05-03T21:44:11.892Z,3.65
2023-05-03T21:46:41.348Z,3.22
2023-05-03T21:49:09.168Z,3.95
2023-05-03T21:51:36.875Z,3.95
2023-05-03T21:54:05.291Z,3.50
2023-05-03T21:56:33.378Z,4.22
2023-05-03T21:59:02.634Z,3.38
2023-05-03T22:01:30.441Z,3.75
2023-05-03T22:03:58.562Z,3.97
2023-05-03T22:06:26.939Z,3.60
2023-05-03T22:08:54.855Z,3.83
2023-05-03T22:11:23.693Z,4.10
2023-05-03T22:14:06.735Z,3.53
2023-05-03T22:16:37.939Z,4.00
2023-05-03T22:19:05.872Z,3.63
2023-05-03T22:21:33.565Z,4.10
2023-05-03T22:24:01.909Z,3.72
2023-05-03T22:26:29.652Z,4.18
2023-05-03T22:28:57.387Z,4.53
2023-05-03T22:31:26.536Z,4.57
2023-05-03T22:33:55.804Z,4.57
2023-05-03T22:36:23.827Z,4.38
2023-05-03T22:38:55.052Z,3.80
2023-05-03T22:41:23.317Z,3.80
2023-05-03T22:43:51.045Z,4.80
2023-05-03T22:46:19.379Z,4.25
2023-05-03T22:48:47.259Z,4.00
2023-05-03T22:51:17.039Z,4.30
2023-05-03T22:53:44.994Z,3.90
2023-05-03T22:56:13.369Z,4.10
2023-05-03T22:58:42.374Z,4.72
2023-05-03T23:01:11.384Z,3.85
2023-05-03T23:03:39.458Z,3.75
2023-05-03T23:06:07.534Z,4.25
2023-05-03T23:08:36.643Z,4.50
2023-05-03T23:11:04.409Z,4.53
2023-05-03T23:13:32.743Z,4.13
2023-05-03T23:16:00.629Z,4.10
2023-05-03T23:18:29.034Z,4.28
2023-05-03T23:20:56.723Z,4.32
2023-05-03T23:23:24.834Z,4.20
2023-05-03T23:25:54.158Z,4.77
2023-05-03T23:28:21.882Z,4.85
2023-05-03T23:30:50.265Z,5.13
2023-05-03T23:33:18.892Z,5.20
2023-05-03T23:35:48.640Z,5.10
2023-05-03T23:38:16.448Z,5.13
2023-05-03T23:40:44.708Z,5.40
2023-05-03T23:43:14.033Z,5.37
2023-05-03T23:45:42.141Z,4.75
2023-05-03T23:48:10.060Z,5.38
2023-05-03T23:50:37.923Z,5.60
2023-05-03T23:53:05.673Z,5.37
2023-05-03T23:55:33.334Z,5.40
2023-05-03T23:58:01.333Z,5.83
